»·PEaware :: N2102W KFUL-KPOC

N2102W :: KFUL-KPOC

FLIGHT INFORMATION

Flight Status: Arrived
Operator: Privately registered:
United States
More flights under this callsign
Pilot: Eric G. (5941)
Aircraft: CESSNA 421 GOLDEN EAGLE
(C421)
More flights by this aircraft type
Origin: KFUL Fullerton Mun
United States
Destination: KPOC Brackett
United States
More flights between these airports :: More routes between these airports
Route: SLI V8 POXKU V363 POM
File this flight plan on PilotEdge
Remarks: NA
Altitude:
(Current/Filed)
6,000ft
Speed:
(Current/Filed)
200kts
Departed: 07-Aug-20 11:43 AM
Arrived: 07-Aug-20 12:02 PM
Distance/Time
Traveled:
16nm/0:19
Distance/Time
To Go:
Arrived

Flight Plot

Page will automatically refresh every two minutes.


Map Options




Map Legend


Flown Route
Filed Route
Departure Airport
Arrival Airport
Navaid (VOR, NDB)
Fix

Horizontal Profiles

Position Reports

Time Latitude Longitude Heading Altitude Ground
Speed
07-Aug-20 11:24 33.870756 -117.983089 89 100ft 0kts
07-Aug-20 11:25 33.870756 -117.983089 89 100ft 0kts
07-Aug-20 11:27 33.870756 -117.983089 89 100ft 0kts
07-Aug-20 11:28 33.870756 -117.983089 89 100ft 0kts
07-Aug-20 11:29 33.870756 -117.983085 89 100ft 0kts
07-Aug-20 11:30 33.870756 -117.983084 89 100ft 0kts
07-Aug-20 11:31 33.870756 -117.983084 89 100ft 0kts
07-Aug-20 11:32 33.870758 -117.983065 82 100ft 1kts
07-Aug-20 11:33 33.870819 -117.983026 345 100ft 0kts
07-Aug-20 11:34 33.871485 -117.980413 78 100ft 11kts
07-Aug-20 11:35 33.872061 -117.977082 78 100ft 11kts
07-Aug-20 11:36 33.872482 -117.975055 76 100ft 0kts
07-Aug-20 11:37 33.872483 -117.975055 76 100ft 0kts
07-Aug-20 11:38 33.872483 -117.975054 76 100ft 0kts
07-Aug-20 11:39 33.872483 -117.975054 76 100ft 0kts
07-Aug-20 11:40 33.872483 -117.975054 76 100ft 0kts
07-Aug-20 11:41 33.872511 -117.974912 76 100ft 4kts
07-Aug-20 11:42 33.872691 -117.974804 356 100ft 3kts
07-Aug-20 11:43 33.872431 -117.977808 253 100ft 69kts
07-Aug-20 11:44 33.858526 -118.002695 179 1206ft 103kts
07-Aug-20 11:44 33.837262 -117.986550 140 2247ft 123kts
07-Aug-20 11:46 33.806868 -117.955898 145 4224ft 131kts
07-Aug-20 11:47 33.774811 -117.927943 139 5155ft 177kts
07-Aug-20 11:48 33.734007 -117.883497 138 5038ft 205kts
07-Aug-20 11:49 33.691468 -117.837165 134 5018ft 202kts
07-Aug-20 11:49 33.684074 -117.788696 54 5022ft 197kts
07-Aug-20 11:51 33.728788 -117.733922 10 5007ft 196kts
07-Aug-20 11:51 33.773086 -117.741930 342 5008ft 194kts
07-Aug-20 11:52 33.823305 -117.770138 333 5000ft 198kts
07-Aug-20 11:54 33.885601 -117.785476 352 5023ft 198kts
07-Aug-20 11:54 33.932496 -117.786887 358 5005ft 198kts
07-Aug-20 11:55 33.988899 -117.787266 358 4976ft 197kts
07-Aug-20 11:56 34.041708 -117.783717 21 4706ft 191kts
07-Aug-20 11:57 34.073296 -117.735589 81 3345ft 200kts
07-Aug-20 11:58 34.097740 -117.710016 282 3267ft 123kts
07-Aug-20 11:59 34.090685 -117.750021 267 1892ft 105kts
07-Aug-20 12:00 34.092146 -117.782168 272 1015ft 42kts
07-Aug-20 12:01 34.092550 -117.784225 358 1015ft 0kts
07-Aug-20 12:02 34.093060 -117.784665 345 1015ft 7kts
07-Aug-20 12:03 34.093061 -117.784808 177 1015ft 0kts
07-Aug-20 12:04 34.093060 -117.784808 177 1015ft 0kts
07-Aug-20 12:05 34.093058 -117.784808 177 1015ft 0kts
07-Aug-20 12:06 34.093057 -117.784808 177 1015ft 0kts
07-Aug-20 12:07 34.093056 -117.784808 177 1015ft 0kts
07-Aug-20 12:08 34.093054 -117.784808 177 1015ft 0kts
07-Aug-20 12:09 34.093053 -117.784808 177 1015ft 0kts
07-Aug-20 12:10 34.093051 -117.784808 177 1015ft 0kts
07-Aug-20 12:11 34.093050 -117.784808 177 1015ft 0kts
07-Aug-20 12:12 34.093048 -117.784808 177 1015ft 0kts
07-Aug-20 12:13 34.093047 -117.784808 177 1015ft 0kts
07-Aug-20 12:14 34.093046 -117.784808 177 1015ft 0kts
07-Aug-20 12:15 34.093044 -117.784807 177 1015ft 0kts

Navigation Log

Ident Type
Flight plan parsing failed, navigation log unavailable